Time;durP1;ratioP1;P1;durP2;ratioP2;P2;SDS_P1;SDS_P2;PMS_P1;PMS_P2;Temp;Humidity;BMP_temperature;BMP_pressure;BME280_temperature;BME280_humidity;BME280_pressure;Samples;Min_cycle;Max_cycle;Signal;HPM_P1;HPM_P2
2022/09/18 00:01:43;;;;;;;4.35;3.08;;;22.30;68.90;;;;;;6114884;28;80517;-55
2022/09/18 00:04:44;;;;;;;5.13;3.22;;;22.30;68.20;;;;;;6116733;28;80770;-55
2022/09/18 00:07:44;;;;;;;5.13;3.03;;;22.30;68.20;;;;;;6117229;28;80384;-56
2022/09/18 00:10:48;;;;;;;4.82;3.40;;;22.30;68.20;;;;;;6105434;28;80440;-53
2022/09/18 00:13:48;;;;;;;8.68;3.30;;;22.30;68.20;;;;;;6130278;28;80145;-53
2022/09/18 00:16:49;;;;;;;6.53;3.00;;;22.20;68.30;;;;;;6105416;28;80404;-54
2022/09/18 00:19:49;;;;;;;4.30;2.65;;;22.20;68.20;;;;;;6116976;28;81702;-54
2022/09/18 00:22:50;;;;;;;3.53;2.50;;;22.20;68.20;;;;;;6121545;28;80363;-54
2022/09/18 00:25:50;;;;;;;5.70;2.67;;;22.20;68.20;;;;;;6127375;28;85911;-60
2022/09/18 00:28:51;;;;;;;5.38;2.65;;;22.20;68.20;;;;;;6124611;28;81436;-59
2022/09/18 00:31:51;;;;;;;5.07;2.50;;;22.20;68.20;;;;;;6125543;28;83106;-59
2022/09/18 00:34:52;;;;;;;4.43;2.60;;;22.20;68.30;;;;;;6128192;28;80408;-59
2022/09/18 00:37:52;;;;;;;5.47;2.90;;;22.30;68.30;;;;;;6126595;28;80180;-59
2022/09/18 00:40:53;;;;;;;4.85;2.55;;;22.30;68.40;;;;;;6135014;28;80254;-59
2022/09/18 00:43:55;;;;;;;5.07;2.55;;;22.30;68.40;;;;;;6142625;28;80370;-57
2022/09/18 00:46:56;;;;;;;6.60;2.95;;;22.30;68.40;;;;;;6151734;28;80547;-55
2022/09/18 00:49:56;;;;;;;4.45;2.50;;;22.30;68.40;;;;;;6150872;28;85323;-55
2022/09/18 00:52:57;;;;;;;4.15;2.67;;;22.30;68.40;;;;;;6144075;28;82787;-56
2022/09/18 00:55:57;;;;;;;4.38;2.45;;;22.30;68.50;;;;;;6142562;28;86526;-53
2022/09/18 00:58:58;;;;;;;4.35;2.42;;;22.20;69.00;;;;;;6160863;28;83630;-54
2022/09/18 01:01:58;;;;;;;5.07;3.05;;;22.30;68.40;;;;;;6145588;28;80042;-56
2022/09/18 01:04:59;;;;;;;3.70;2.40;;;22.20;68.40;;;;;;6146987;28;81953;-55
2022/09/18 01:07:59;;;;;;;3.97;2.63;;;22.20;68.50;;;;;;6137728;28;80406;-55
2022/09/18 01:11:00;;;;;;;3.22;2.40;;;22.20;68.50;;;;;;6143554;28;81558;-56
2022/09/18 01:14:01;;;;;;;2.42;2.08;;;22.20;68.50;;;;;;6139593;28;80386;-55
2022/09/18 01:17:02;;;;;;;3.72;2.67;;;22.20;68.50;;;;;;6141684;28;79996;-56
2022/09/18 01:20:02;;;;;;;4.97;2.50;;;22.20;68.50;;;;;;6144827;28;86236;-61
2022/09/18 01:23:03;;;;;;;4.38;2.22;;;22.20;68.50;;;;;;6139673;28;83004;-61
2022/09/18 01:26:03;;;;;;;4.20;2.17;;;22.20;68.50;;;;;;6125984;28;83519;-61
2022/09/18 01:29:04;;;;;;;5.13;2.33;;;22.20;68.50;;;;;;6135586;28;80660;-61
2022/09/18 01:32:05;;;;;;;2.97;2.13;;;22.20;68.50;;;;;;6134258;28;83351;-62
2022/09/18 01:35:06;;;;;;;5.75;2.60;;;22.20;68.70;;;;;;6148142;28;85655;-61
2022/09/18 01:38:07;;;;;;;2.90;2.10;;;22.20;68.70;;;;;;6143233;28;83109;-56
2022/09/18 01:41:08;;;;;;;3.42;2.22;;;22.20;68.70;;;;;;6124391;28;82237;-57
2022/09/18 01:44:08;;;;;;;3.65;2.33;;;22.20;68.60;;;;;;6122333;28;82602;-56
2022/09/18 01:47:09;;;;;;;2.85;2.13;;;22.10;68.70;;;;;;6133077;28;80583;-56
2022/09/18 01:50:10;;;;;;;5.32;2.25;;;22.10;68.70;;;;;;6136363;28;83277;-56
2022/09/18 01:53:12;;;;;;;3.70;1.92;;;22.10;68.70;;;;;;6148715;28;83268;-55
2022/09/18 01:56:12;;;;;;;4.32;2.58;;;22.10;68.70;;;;;;6139614;28;81465;-56
2022/09/18 01:59:13;;;;;;;5.05;2.60;;;22.10;68.80;;;;;;6126021;28;80244;-54
2022/09/18 02:02:22;;;;;;;3.30;2.05;;;22.10;68.70;;;;;;6125300;28;83309;-53
2022/09/18 02:05:24;;;;;;;3.78;2.28;;;22.10;68.70;;;;;;6138968;28;81273;-56
2022/09/18 02:08:24;;;;;;;2.40;2.00;;;22.10;68.80;;;;;;6118444;28;82793;-54
2022/09/18 02:11:29;;;;;;;3.45;2.15;;;22.10;68.70;;;;;;6125212;28;82428;-53
2022/09/18 02:14:32;;;;;;;1.95;1.75;;;22.10;68.70;;;;;;6141257;28;84075;-61
2022/09/18 02:17:39;;;;;;;3.97;1.83;;;22.10;68.80;;;;;;6132158;28;83292;-61
2022/09/18 02:20:42;;;;;;;5.38;2.35;;;22.10;68.70;;;;;;6145189;28;83063;-61
2022/09/18 02:23:42;;;;;;;3.22;1.80;;;22.10;68.70;;;;;;6128934;28;81031;-62
2022/09/18 02:26:44;;;;;;;1.90;1.55;;;22.10;68.70;;;;;;6111430;28;84505;-61
2022/09/18 02:29:44;;;;;;;3.90;2.10;;;22.10;68.80;;;;;;6117355;28;80345;-61
2022/09/18 02:32:45;;;;;;;2.88;2.03;;;22.10;68.80;;;;;;6116499;28;80309;-62
2022/09/18 02:35:46;;;;;;;4.15;2.25;;;22.10;68.80;;;;;;6139513;28;83540;-61
2022/09/18 02:38:47;;;;;;;2.72;1.80;;;22.10;68.80;;;;;;6125353;28;83320;-59
2022/09/18 02:41:48;;;;;;;3.33;2.08;;;22.10;68.80;;;;;;6133994;28;83399;-60
2022/09/18 02:44:50;;;;;;;3.17;2.20;;;22.10;68.80;;;;;;6126517;28;83611;-60
2022/09/18 02:47:51;;;;;;;3.45;1.90;;;22.10;68.80;;;;;;6159835;28;82882;-61
2022/09/18 02:50:51;;;;;;;2.15;1.48;;;22.10;68.70;;;;;;6139579;28;83085;-58
2022/09/18 02:53:52;;;;;;;2.03;1.73;;;22.10;68.70;;;;;;6146245;28;82938;-60
2022/09/18 02:56:53;;;;;;;2.97;1.70;;;22.10;68.60;;;;;;6149188;28;82841;-59
2022/09/18 02:59:53;;;;;;;2.80;2.08;;;22.10;68.60;;;;;;6154920;28;83557;-60
2022/09/18 03:02:54;;;;;;;1.88;1.60;;;22.10;68.70;;;;;;6132635;28;82534;-59
2022/09/18 03:06:21;;;;;;;;;;;22.10;68.60;;;;;;6120166;28;82369;-60
2022/09/18 03:09:22;;;;;;;3.05;1.73;;;22.10;68.60;;;;;;6148339;28;83097;-58
2022/09/18 03:12:23;;;;;;;2.78;1.50;;;22.10;68.50;;;;;;6137126;28;80296;-59
2022/09/18 03:15:23;;;;;;;3.55;1.70;;;22.10;68.60;;;;;;6134442;28;82950;-59
2022/09/18 03:18:24;;;;;;;5.78;2.08;;;22.10;68.70;;;;;;6142154;28;83260;-59
2022/09/18 03:21:28;;;;;;;3.25;1.75;;;22.10;68.70;;;;;;6139172;28;82041;-58
2022/09/18 03:24:28;;;;;;;2.53;2.05;;;22.10;68.60;;;;;;6143682;28;83401;-58
2022/09/18 03:27:30;;;;;;;3.50;1.98;;;22.10;68.70;;;;;;6135830;28;82341;-58
2022/09/18 03:30:30;;;;;;;2.92;1.65;;;22.10;68.80;;;;;;6118078;28;85647;-58
2022/09/18 03:33:31;;;;;;;3.33;2.03;;;22.10;68.80;;;;;;6130626;28;83756;-59
2022/09/18 03:36:32;;;;;;;4.40;1.63;;;22.10;68.80;;;;;;6142227;28;83943;-59
2022/09/18 03:39:33;;;;;;;3.10;1.75;;;22.00;68.70;;;;;;6141745;28;83075;-59
2022/09/18 03:42:33;;;;;;;2.88;1.88;;;22.00;68.80;;;;;;6143339;28;82815;-60
2022/09/18 03:45:34;;;;;;;2.75;1.60;;;22.00;68.80;;;;;;6129347;28;83583;-59
2022/09/18 03:48:36;;;;;;;1.95;1.75;;;22.00;68.80;;;;;;6134088;28;82650;-58
2022/09/18 03:51:37;;;;;;;2.30;1.88;;;22.00;68.80;;;;;;6133306;28;83448;-57
2022/09/18 03:54:39;;;;;;;5.47;1.95;;;22.00;68.80;;;;;;6143685;28;83340;-58
2022/09/18 03:58:00;;;;;;;2.15;1.38;;;22.00;68.80;;;;;;6107989;28;80565;-57
2022/09/18 04:01:16;;;;;;;2.33;1.73;;;22.00;68.80;;;;;;6152908;28;87264;-57
2022/09/18 04:04:52;;;;;;;6.97;1.70;;;22.00;68.80;;;;;;6113852;28;80351;-58
2022/09/18 04:08:16;;;;;;;5.13;2.10;;;22.00;68.80;;;;;;6105913;28;80494;-58
2022/09/18 04:11:33;;;;;;;3.63;1.90;;;22.00;68.70;;;;;;6110564;28;83512;-57
2022/09/18 04:14:34;;;;;;;2.45;1.80;;;22.00;68.70;;;;;;6131126;28;82370;-57
2022/09/18 04:17:34;;;;;;;4.38;1.48;;;22.00;68.80;;;;;;6145060;28;82821;-58
2022/09/18 04:20:37;;;;;;;5.45;1.92;;;22.00;68.80;;;;;;6141500;28;83382;-58
2022/09/18 04:23:39;;;;;;;3.30;1.80;;;22.00;68.80;;;;;;6136521;28;82897;-59
2022/09/18 04:26:39;;;;;;;3.50;1.90;;;22.00;68.90;;;;;;6150186;28;83146;-55
2022/09/18 04:29:40;;;;;;;2.47;1.75;;;22.00;68.80;;;;;;6123618;28;82153;-58
2022/09/18 04:32:42;;;;;;;2.35;1.70;;;22.00;68.90;;;;;;6152262;28;82535;-58
2022/09/18 04:35:42;;;;;;;3.72;1.88;;;22.10;69.10;;;;;;6152776;28;82512;-57
2022/09/18 04:38:43;;;;;;;5.35;2.60;;;22.00;69.10;;;;;;6134542;28;85079;-58
2022/09/18 04:41:49;;;;;;;5.00;1.80;;;22.00;69.20;;;;;;6125251;28;83593;-56
2022/09/18 04:44:51;;;;;;;3.25;2.00;;;22.00;69.00;;;;;;6136131;28;83727;-57
2022/09/18 04:47:52;;;;;;;2.47;1.60;;;22.00;68.90;;;;;;6129656;28;80314;-58
2022/09/18 04:50:55;;;;;;;3.05;1.63;;;22.00;69.00;;;;;;6127173;28;83427;-55
2022/09/18 04:53:55;;;;;;;3.20;1.65;;;22.00;69.00;;;;;;6140903;28;83731;-57
2022/09/18 04:56:57;;;;;;;3.58;1.88;;;22.00;69.10;;;;;;6125404;28;82141;-56
2022/09/18 04:59:57;;;;;;;4.38;2.17;;;22.10;69.20;;;;;;6114523;28;84060;-57
2022/09/18 05:02:58;;;;;;;4.93;2.60;;;22.10;69.20;;;;;;6112386;28;80649;-55
2022/09/18 05:06:01;;;;;;;3.08;2.10;;;22.10;69.40;;;;;;6121439;28;86655;-57
2022/09/18 05:09:01;;;;;;;4.65;2.10;;;22.00;69.80;;;;;;6129861;28;82835;-58
2022/09/18 05:12:02;;;;;;;6.25;2.40;;;22.00;70.30;;;;;;6120003;28;83372;-59
2022/09/18 05:15:02;;;;;;;6.13;2.40;;;22.00;70.70;;;;;;6126446;28;83644;-56
2022/09/18 05:18:03;;;;;;;3.30;2.03;;;22.00;70.50;;;;;;6124038;28;81743;-55
2022/09/18 05:21:03;;;;;;;5.03;2.05;;;22.00;70.20;;;;;;6112768;28;80888;-58
2022/09/18 05:24:05;;;;;;;6.28;2.58;;;22.00;69.90;;;;;;6116433;28;82324;-58
2022/09/18 05:27:06;;;;;;;7.85;2.65;;;22.10;69.80;;;;;;6124880;28;83337;-56
2022/09/18 05:30:06;;;;;;;7.78;2.60;;;22.10;69.70;;;;;;6108327;28;86427;-56
2022/09/18 05:33:22;;;;;;;5.13;2.10;;;22.10;69.70;;;;;;6128931;28;82736;-56
2022/09/18 05:36:23;;;;;;;16.05;2.42;;;22.00;69.80;;;;;;6133811;28;83212;-59
2022/09/18 05:39:24;;;;;;;7.03;2.00;;;22.00;69.60;;;;;;6127178;28;81726;-58
2022/09/18 05:42:24;;;;;;;6.32;2.15;;;22.10;69.80;;;;;;6118339;28;86862;-59
2022/09/18 05:45:25;;;;;;;5.88;2.15;;;22.00;69.50;;;;;;6115799;28;83961;-59
2022/09/18 05:48:26;;;;;;;13.95;2.85;;;22.10;69.60;;;;;;6142604;28;83175;-59
2022/09/18 05:51:26;;;;;;;4.65;2.22;;;22.00;69.80;;;;;;6130848;28;83567;-59
2022/09/18 05:54:27;;;;;;;9.73;2.50;;;22.00;69.70;;;;;;6098804;28;82075;-59
2022/09/18 05:57:27;;;;;;;42.47;16.05;;;22.00;69.70;;;;;;6112032;28;83227;-57
2022/09/18 06:00:28;;;;;;;291.90;103.63;;;22.10;69.70;;;;;;6077693;28;84795;-58
2022/09/18 06:03:36;;;;;;;984.13;435.23;;;22.10;69.70;;;;;;6102048;28;87876;-58
2022/09/18 06:06:36;;;;;;;1177.68;526.60;;;22.10;69.80;;;;;;6096862;28;88587;-57
2022/09/18 06:09:37;;;;;;;984.67;435.48;;;22.10;69.70;;;;;;6095529;28;85620;-58
2022/09/18 06:12:37;;;;;;;953.17;420.65;;;22.10;69.60;;;;;;6101222;28;88403;-58
2022/09/18 06:15:38;;;;;;;726.08;315.55;;;22.10;69.60;;;;;;6118223;28;88159;-60
2022/09/18 06:18:39;;;;;;;713.38;311.40;;;22.10;69.40;;;;;;6105059;28;88505;-59
2022/09/18 06:21:39;;;;;;;725.83;333.50;;;22.20;69.50;;;;;;6107376;28;88079;-60
2022/09/18 06:24:42;;;;;;;729.83;345.48;;;22.20;69.40;;;;;;6114902;28;86824;-59
2022/09/18 06:27:45;;;;;;;670.70;308.75;;;22.20;69.40;;;;;;6110624;28;88717;-60
2022/09/18 06:30:46;;;;;;;631.92;277.55;;;22.20;69.20;;;;;;6115180;28;87235;-59
2022/09/18 06:33:47;;;;;;;559.92;240.45;;;22.20;68.80;;;;;;6118009;28;85809;-59
2022/09/18 06:36:47;;;;;;;511.67;213.07;;;22.30;68.90;;;;;;6126767;28;87984;-59
2022/09/18 06:39:58;;;;;;;478.88;187.07;;;22.20;68.90;;;;;;6111289;28;86695;-58
2022/09/18 06:43:13;;;;;;;385.33;154.02;;;22.30;68.80;;;;;;6150368;28;92962;-59
2022/09/18 06:46:32;;;;;;;323.75;131.02;;;22.30;68.80;;;;;;6123123;28;86005;-61
2022/09/18 06:49:41;;;;;;;302.23;111.57;;;22.40;68.40;;;;;;6114708;28;86982;-59
2022/09/18 06:52:42;;;;;;;263.75;99.13;;;22.30;67.60;;;;;;6128496;28;89168;-59
2022/09/18 06:55:44;;;;;;;237.00;87.20;;;22.40;68.10;;;;;;6129389;28;88046;-61
2022/09/18 06:58:44;;;;;;;228.40;85.07;;;22.30;67.30;;;;;;6125505;28;85829;-59
2022/09/18 07:01:49;;;;;;;189.68;69.85;;;22.30;67.40;;;;;;6127746;28;85238;-60
2022/09/18 07:05:00;;;;;;;184.63;68.95;;;22.40;66.70;;;;;;6141474;28;90138;-62
2022/09/18 07:08:01;;;;;;;144.63;52.45;;;22.40;66.90;;;;;;6136620;28;85860;-60
2022/09/18 07:11:05;;;;;;;131.52;47.95;;;22.30;66.60;;;;;;6121327;28;88536;-59
2022/09/18 07:14:07;;;;;;;136.75;48.53;;;22.30;66.70;;;;;;6123651;28;83108;-59
2022/09/18 07:17:07;;;;;;;109.40;41.63;;;22.30;66.90;;;;;;6127809;28;85993;-59
2022/09/18 07:20:08;;;;;;;99.15;39.40;;;22.30;66.40;;;;;;6138417;28;89016;-60
2022/09/18 07:23:12;;;;;;;98.65;36.58;;;22.30;66.50;;;;;;6129788;28;86288;-59
2022/09/18 07:26:19;;;;;;;86.30;30.33;;;22.30;66.10;;;;;;6108101;28;84447;-58
2022/09/18 07:29:21;;;;;;;94.70;32.10;;;22.30;65.60;;;;;;6105704;28;85829;-59
2022/09/18 07:32:22;;;;;;;72.60;26.63;;;22.30;65.90;;;;;;6111907;28;85374;-59
2022/09/18 07:35:22;;;;;;;56.60;21.38;;;22.30;65.80;;;;;;6109885;28;85861;-60
2022/09/18 07:38:24;;;;;;;56.83;20.33;;;22.40;65.70;;;;;;6091715;28;85848;-59
2022/09/18 07:41:30;;;;;;;50.92;21.00;;;22.40;65.20;;;;;;6097700;28;85905;-59
2022/09/18 07:44:33;;;;;;;53.05;19.15;;;22.40;65.20;;;;;;6122907;28;84115;-59
2022/09/18 07:47:35;;;;;;;34.60;14.35;;;22.40;65.50;;;;;;6119452;28;88825;-60
2022/09/18 07:50:38;;;;;;;31.08;11.20;;;22.30;64.00;;;;;;6108311;28;85391;-60
2022/09/18 07:53:41;;;;;;;19.98;8.38;;;22.20;63.40;;;;;;6103984;28;84182;-60
2022/09/18 07:56:42;;;;;;;14.18;6.60;;;22.10;63.30;;;;;;6121096;28;86471;-61
2022/09/18 07:59:42;;;;;;;19.38;6.95;;;22.10;62.80;;;;;;6108998;28;83328;-61
2022/09/18 08:02:44;;;;;;;15.27;5.85;;;22.00;62.80;;;;;;6115808;28;82670;-61
2022/09/18 08:05:55;;;;;;;10.30;4.75;;;22.00;62.60;;;;;;6120999;28;81856;-59
2022/09/18 08:08:55;;;;;;;9.88;3.80;;;22.00;62.50;;;;;;6122474;28;83047;-62
2022/09/18 08:12:19;;;;;;;6.45;3.42;;;21.90;62.10;;;;;;6108425;28;80802;-61
2022/09/18 08:15:43;;;;;;;5.30;3.08;;;21.90;61.70;;;;;;6113536;28;83386;-60
2022/09/18 08:19:19;;;;;;;5.43;2.58;;;21.90;61.60;;;;;;6106862;28;85760;-59
2022/09/18 08:22:38;;;;;;;7.00;3.28;;;21.90;61.70;;;;;;6114100;28;80567;-59
2022/09/18 08:25:40;;;;;;;5.57;3.08;;;21.80;61.50;;;;;;6121286;28;83190;-66
2022/09/18 08:28:40;;;;;;;6.88;2.50;;;21.80;61.60;;;;;;6132867;28;83283;-67
2022/09/18 08:31:41;;;;;;;12.13;2.35;;;21.70;61.50;;;;;;6137526;28;82616;-68
2022/09/18 08:34:43;;;;;;;10.70;2.60;;;21.70;61.80;;;;;;6132596;28;85767;-71
2022/09/18 08:37:47;;;;;;;4.32;2.67;;;21.80;62.80;;;;;;6127047;28;82799;-66
2022/09/18 08:41:11;;;;;;;10.45;3.80;;;21.80;63.70;;;;;;6065186;28;84865;-56
2022/09/18 08:44:12;;;;;;;14.68;3.45;;;21.90;66.50;;;;;;6118291;28;83409;-58
2022/09/18 08:47:13;;;;;;;8.85;3.53;;;22.00;67.70;;;;;;6119942;28;83042;-57
2022/09/18 08:50:14;;;;;;;8.27;3.10;;;22.10;67.10;;;;;;6132826;28;83862;-56
2022/09/18 08:53:15;;;;;;;5.80;3.38;;;22.20;68.20;;;;;;6118337;28;80875;-55
2022/09/18 08:56:51;;;;;;;13.30;3.70;;;22.20;68.60;;;;;;6089270;28;80706;-54
2022/09/18 09:00:02;;;;;;;6.65;2.35;;;22.30;69.60;;;;;;6125698;28;80360;-58
2022/09/18 09:03:04;;;;;;;2.30;1.98;;;22.10;65.10;;;;;;6131766;28;84131;-56
2022/09/18 09:06:04;;;;;;;7.18;3.00;;;22.00;64.40;;;;;;6126373;28;83198;-57
2022/09/18 09:09:09;;;;;;;6.75;2.85;;;22.00;64.20;;;;;;6126672;28;80237;-57
2022/09/18 09:12:11;;;;;;;9.07;3.72;;;21.90;63.60;;;;;;6127678;28;80499;-58
2022/09/18 09:15:12;;;;;;;13.48;3.33;;;21.80;64.10;;;;;;6127986;28;83489;-56
2022/09/18 09:18:14;;;;;;;15.25;4.15;;;21.90;64.30;;;;;;6126059;28;81932;-55
2022/09/18 09:21:15;;;;;;;11.95;4.13;;;21.90;64.10;;;;;;6152621;28;81624;-51
2022/09/18 09:24:19;;;;;;;18.75;4.25;;;21.90;64.70;;;;;;6147682;28;88126;-51
2022/09/18 09:27:43;;;;;;;11.95;3.30;;;22.00;66.20;;;;;;6093063;28;86470;-57
2022/09/18 09:30:54;;;;;;;10.93;3.40;;;21.90;67.20;;;;;;6109180;28;83131;-59
2022/09/18 09:34:13;;;;;;;15.32;3.55;;;21.90;66.90;;;;;;6137351;28;84789;-62
2022/09/18 09:37:27;;;;;;;3.97;2.60;;;21.90;67.30;;;;;;6125034;28;83350;-59
2022/09/18 09:40:31;;;;;;;6.22;2.20;;;21.90;66.90;;;;;;6129977;28;81285;-59
2022/09/18 09:43:32;;;;;;;3.20;2.15;;;21.90;67.50;;;;;;6133070;28;80913;-59
2022/09/18 09:46:33;;;;;;;4.28;1.77;;;21.90;67.30;;;;;;6145452;28;83290;-58
2022/09/18 09:49:34;;;;;;;2.35;1.77;;;22.00;67.90;;;;;;6125874;28;83291;-58
2022/09/18 09:52:36;;;;;;;3.63;1.40;;;22.10;67.40;;;;;;6150621;28;83938;-59
2022/09/18 09:55:40;;;;;;;2.55;1.25;;;21.70;66.10;;;;;;6158757;28;82738;-59
2022/09/18 09:58:41;;;;;;;1.75;1.27;;;21.80;66.70;;;;;;6157490;28;82250;-59
2022/09/18 10:01:42;;;;;;;4.43;1.40;;;21.80;68.00;;;;;;6147039;28;83572;-58
2022/09/18 10:04:42;;;;;;;2.47;1.33;;;21.70;67.00;;;;;;6147945;28;83327;-58
2022/09/18 10:07:43;;;;;;;1.88;1.10;;;21.80;65.40;;;;;;6144390;28;83829;-60
2022/09/18 10:10:44;;;;;;;1.88;1.23;;;21.80;65.10;;;;;;6137169;28;83589;-58
2022/09/18 10:13:45;;;;;;;1.48;1.10;;;21.90;64.60;;;;;;6135288;28;83210;-59
2022/09/18 10:16:46;;;;;;;2.35;1.30;;;22.00;63.70;;;;;;6124205;28;83038;-57
2022/09/18 10:19:47;;;;;;;5.75;1.10;;;22.00;63.10;;;;;;6120317;28;81501;-59
2022/09/18 10:22:47;;;;;;;2.03;1.20;;;22.00;63.10;;;;;;6122962;28;83885;-59
2022/09/18 10:25:48;;;;;;;2.08;1.05;;;22.10;62.90;;;;;;6105210;28;81455;-57
2022/09/18 10:28:50;;;;;;;2.90;1.30;;;22.00;62.80;;;;;;6143562;28;84195;-55
2022/09/18 10:31:51;;;;;;;1.20;0.93;;;22.00;62.50;;;;;;6130609;28;81781;-58
2022/09/18 10:34:53;;;;;;;9.02;4.40;;;22.10;62.00;;;;;;6129350;28;84059;-55
2022/09/18 10:37:56;;;;;;;65.78;26.95;;;21.90;60.60;;;;;;6105240;28;83391;-58
2022/09/18 10:41:02;;;;;;;81.22;35.25;;;21.80;61.20;;;;;;6127207;28;84030;-59
2022/09/18 10:44:03;;;;;;;111.75;47.42;;;21.80;61.10;;;;;;6117505;28;83371;-62
2022/09/18 10:47:05;;;;;;;113.72;47.70;;;21.80;61.20;;;;;;6120475;28;89974;-57
2022/09/18 10:50:07;;;;;;;107.13;45.88;;;21.80;61.50;;;;;;6123793;28;85451;-59
2022/09/18 10:53:10;;;;;;;82.63;37.45;;;21.80;62.30;;;;;;6121110;28;85314;-58
2022/09/18 10:56:11;;;;;;;69.00;29.30;;;21.80;63.20;;;;;;6116421;28;83942;-59
2022/09/18 10:59:12;;;;;;;61.95;26.30;;;21.90;63.90;;;;;;6123959;28;84053;-59
2022/09/18 11:02:13;;;;;;;44.97;21.00;;;22.00;64.30;;;;;;6107648;28;86015;-59
2022/09/18 11:05:14;;;;;;;45.70;19.33;;;22.00;65.70;;;;;;6111908;28;89182;-59
2022/09/18 11:08:15;;;;;;;44.60;17.70;;;22.10;66.60;;;;;;6126567;28;85739;-59
2022/09/18 11:11:16;;;;;;;27.08;13.63;;;22.20;66.40;;;;;;6127665;28;84219;-59
2022/09/18 11:14:17;;;;;;;20.10;9.70;;;22.20;66.40;;;;;;6123501;28;84144;-60
2022/09/18 11:17:28;;;;;;;16.33;8.80;;;22.30;67.00;;;;;;6135376;28;85375;-59
2022/09/18 11:20:29;;;;;;;18.77;7.80;;;22.30;67.20;;;;;;6131448;28;82520;-59
2022/09/18 11:23:39;;;;;;;14.13;6.20;;;22.20;67.30;;;;;;6121630;28;83371;-59
2022/09/18 11:26:44;;;;;;;15.20;6.90;;;22.20;67.10;;;;;;6127492;28;82855;-54
2022/09/18 11:29:45;;;;;;;13.93;5.63;;;22.00;66.60;;;;;;6141366;28;86589;-51
2022/09/18 11:32:48;;;;;;;8.88;4.88;;;22.00;68.50;;;;;;6124839;28;83486;-51
2022/09/18 11:35:50;;;;;;;8.82;3.85;;;22.00;67.70;;;;;;6126374;28;82595;-52
2022/09/18 11:38:51;;;;;;;8.63;4.22;;;22.10;68.30;;;;;;6113322;28;85991;-49
2022/09/18 11:41:52;;;;;;;6.55;3.28;;;22.00;68.10;;;;;;6133862;28;81515;-51
2022/09/18 11:44:53;;;;;;;4.45;3.00;;;22.00;68.40;;;;;;6128888;28;83383;-62
2022/09/18 11:47:54;;;;;;;5.22;3.05;;;22.00;68.10;;;;;;6124838;28;84471;-63
2022/09/18 11:50:55;;;;;;;4.93;2.65;;;22.00;69.30;;;;;;6117482;28;82050;-63
2022/09/18 11:54:00;;;;;;;3.33;1.88;;;22.00;68.90;;;;;;6115497;28;84112;-62
2022/09/18 11:57:01;;;;;;;4.57;2.13;;;22.00;69.00;;;;;;6149110;28;85706;-64
2022/09/18 12:00:06;;;;;;;11.63;2.15;;;22.00;69.80;;;;;;6093568;28;83653;-61
2022/09/18 12:03:15;;;;;;;4.80;2.15;;;22.00;70.20;;;;;;6103497;28;81030;-68
2022/09/18 12:06:16;;;;;;;5.93;2.35;;;22.00;69.70;;;;;;6159740;28;83622;-62
2022/09/18 12:09:17;;;;;;;2.08;1.55;;;22.00;70.00;;;;;;6134517;28;82928;-61
2022/09/18 12:12:19;;;;;;;5.20;1.52;;;22.10;70.40;;;;;;6139654;28;83278;-61
2022/09/18 12:15:20;;;;;;;2.72;1.80;;;22.20;69.90;;;;;;6102832;28;82903;-62
2022/09/18 12:18:25;;;;;;;1.20;1.10;;;22.20;69.40;;;;;;6118773;28;82920;-61
2022/09/18 12:21:25;;;;;;;1.40;1.30;;;22.30;69.50;;;;;;6117285;28;83128;-61
2022/09/18 12:24:26;;;;;;;1.77;1.38;;;22.40;68.40;;;;;;6119537;28;83203;-61
2022/09/18 12:27:28;;;;;;;1.90;1.30;;;22.40;68.50;;;;;;6114395;28;82776;-62
2022/09/18 12:30:29;;;;;;;1.25;1.15;;;22.40;68.40;;;;;;6113843;28;83941;-60
2022/09/18 12:33:29;;;;;;;1.02;0.90;;;22.40;68.50;;;;;;6096288;28;82919;-62
2022/09/18 12:36:30;;;;;;;1.40;1.30;;;22.40;68.40;;;;;;6104560;28;80542;-61
2022/09/18 12:39:30;;;;;;;1.38;1.10;;;22.30;69.10;;;;;;6111541;28;82370;-61
2022/09/18 12:42:31;;;;;;;3.55;1.20;;;22.30;69.70;;;;;;6103378;28;80726;-64
2022/09/18 12:45:31;;;;;;;2.38;1.30;;;22.30;68.40;;;;;;6107217;28;80388;-63
2022/09/18 12:48:32;;;;;;;2.40;1.30;;;22.20;68.80;;;;;;6114308;28;80436;-63
2022/09/18 12:51:32;;;;;;;1.80;1.20;;;22.20;69.20;;;;;;6117877;28;80440;-63
2022/09/18 12:54:34;;;;;;;1.67;1.35;;;22.20;69.20;;;;;;6123814;28;80557;-64
2022/09/18 12:57:34;;;;;;;1.70;1.08;;;22.30;70.40;;;;;;6125517;28;83004;-52
2022/09/18 13:00:35;;;;;;;2.85;1.17;;;22.30;69.70;;;;;;6126533;28;81887;-55
2022/09/18 13:03:35;;;;;;;1.42;1.20;;;22.30;69.00;;;;;;6124094;28;81301;-49
2022/09/18 13:06:36;;;;;;;1.55;1.20;;;22.30;69.10;;;;;;6118507;28;84079;-54
2022/09/18 13:09:36;;;;;;;3.67;1.30;;;22.30;69.30;;;;;;6112481;28;82195;-56
2022/09/18 13:12:37;;;;;;;7.43;1.35;;;22.40;69.70;;;;;;6120280;28;83596;-57
2022/09/18 13:15:37;;;;;;;9.50;1.42;;;22.30;70.00;;;;;;6122024;28;80454;-53
2022/09/18 13:18:38;;;;;;;3.03;1.30;;;22.30;70.00;;;;;;6120615;28;88061;-59
2022/09/18 13:21:40;;;;;;;2.08;1.30;;;22.20;69.30;;;;;;6123694;28;84295;-59
2022/09/18 13:24:41;;;;;;;3.10;1.50;;;22.30;69.60;;;;;;6117884;28;81249;-59
2022/09/18 13:27:41;;;;;;;3.10;1.55;;;22.30;69.30;;;;;;6115873;28;80274;-60
2022/09/18 13:30:42;;;;;;;2.72;1.70;;;22.30;69.10;;;;;;6119695;28;82446;-59
2022/09/18 13:33:42;;;;;;;1.40;1.30;;;22.30;69.10;;;;;;6117018;28;81176;-59
2022/09/18 13:36:42;;;;;;;3.97;1.63;;;22.30;69.20;;;;;;6119842;28;81120;-52
2022/09/18 13:39:43;;;;;;;1.30;1.20;;;22.30;68.90;;;;;;6118072;28;81975;-53
2022/09/18 13:42:43;;;;;;;3.70;1.33;;;22.20;68.50;;;;;;6115243;28;83174;-50
2022/09/18 13:45:44;;;;;;;2.10;1.33;;;22.20;68.60;;;;;;6116102;28;85251;-53
2022/09/18 13:48:45;;;;;;;2.22;1.65;;;22.20;68.80;;;;;;6112877;28;80373;-54
2022/09/18 13:51:45;;;;;;;4.65;1.70;;;22.20;68.80;;;;;;6114826;28;81457;-54
2022/09/18 13:54:45;;;;;;;3.63;1.20;;;22.20;68.90;;;;;;6118798;28;80345;-52
2022/09/18 13:57:47;;;;;;;1.88;1.23;;;22.20;69.00;;;;;;6116219;28;80517;-53
2022/09/18 14:00:47;;;;;;;1.35;1.13;;;22.20;69.00;;;;;;6122781;28;80250;-53
2022/09/18 14:03:48;;;;;;;1.42;1.20;;;22.20;69.30;;;;;;6120363;28;81403;-53
2022/09/18 14:06:48;;;;;;;0.93;0.90;;;22.20;69.20;;;;;;6133759;28;84192;-53
2022/09/18 14:09:49;;;;;;;1.38;1.17;;;22.20;69.40;;;;;;6124559;28;80686;-53
2022/09/18 14:12:49;;;;;;;3.78;1.70;;;22.20;69.50;;;;;;6129621;28;80756;-55
2022/09/18 14:15:50;;;;;;;85.78;31.23;;;22.20;69.30;;;;;;6125418;28;80735;-56
2022/09/18 14:18:50;;;;;;;224.73;93.35;;;22.10;69.50;;;;;;6150426;28;83942;-63
2022/09/18 14:21:51;;;;;;;208.02;88.45;;;22.10;69.00;;;;;;6150648;28;83155;-57
2022/09/18 14:24:51;;;;;;;177.57;73.50;;;22.00;68.90;;;;;;6153861;28;83248;-57
2022/09/18 14:27:54;;;;;;;133.15;59.78;;;22.00;68.30;;;;;;6143401;28;83989;-59
2022/09/18 14:30:55;;;;;;;133.77;53.33;;;22.00;68.40;;;;;;6155017;28;83900;-57
2022/09/18 14:33:55;;;;;;;104.40;45.63;;;22.00;68.50;;;;;;6141090;28;83506;-56
2022/09/18 14:36:58;;;;;;;88.43;38.05;;;21.90;68.00;;;;;;6124125;28;83290;-56
2022/09/18 14:39:59;;;;;;;70.47;30.50;;;21.90;68.00;;;;;;6130280;28;83317;-58
2022/09/18 14:43:00;;;;;;;78.25;29.27;;;21.90;68.20;;;;;;6122083;28;84212;-57
2022/09/18 14:46:00;;;;;;;78.03;26.80;;;21.90;68.20;;;;;;6125216;28;84471;-57
2022/09/18 14:49:02;;;;;;;58.40;22.58;;;21.90;68.50;;;;;;6127280;28;89745;-57
2022/09/18 14:52:02;;;;;;;43.53;17.95;;;21.90;68.40;;;;;;6120704;28;83745;-56
2022/09/18 14:55:02;;;;;;;49.40;17.70;;;21.90;68.60;;;;;;6109284;28;83079;-56
2022/09/18 14:58:03;;;;;;;38.17;17.08;;;21.90;68.60;;;;;;6095736;28;86617;-56
2022/09/18 15:01:04;;;;;;;40.88;14.30;;;21.90;68.50;;;;;;6095175;28;86236;-55
2022/09/18 15:04:04;;;;;;;30.27;13.55;;;21.90;68.30;;;;;;6099792;28;86330;-51
2022/09/18 15:07:05;;;;;;;28.77;12.30;;;21.80;68.40;;;;;;6103154;28;82719;-55
2022/09/18 15:10:05;;;;;;;30.05;12.40;;;21.90;68.40;;;;;;6099207;28;84562;-55
2022/09/18 15:13:06;;;;;;;22.13;9.98;;;21.80;68.20;;;;;;6098205;28;85885;-57
2022/09/18 15:16:06;;;;;;;32.83;10.18;;;21.80;68.30;;;;;;6098973;28;83504;-58
2022/09/18 15:19:08;;;;;;;28.35;8.77;;;21.80;68.50;;;;;;6098685;28;82947;-56
2022/09/18 15:22:08;;;;;;;18.17;7.65;;;21.80;68.30;;;;;;6118039;28;84353;-58
2022/09/18 15:25:09;;;;;;;17.33;8.35;;;21.80;68.30;;;;;;6102763;28;80469;-58
2022/09/18 15:28:09;;;;;;;17.48;7.35;;;21.80;68.20;;;;;;6103294;28;81863;-58
2022/09/18 15:31:10;;;;;;;15.73;6.18;;;21.80;68.00;;;;;;6105146;28;80256;-60
2022/09/18 15:34:10;;;;;;;15.13;6.32;;;21.80;67.80;;;;;;6103702;28;80448;-59
2022/09/18 15:37:11;;;;;;;15.07;6.47;;;21.90;67.90;;;;;;6125113;28;87678;-57
2022/09/18 15:40:11;;;;;;;11.50;5.95;;;21.90;67.90;;;;;;6140315;28;87454;-57
2022/09/18 15:43:11;;;;;;;12.18;5.57;;;21.80;67.80;;;;;;6131862;28;80287;-57